sensor_id;sensor_type;location;lat;lon;timestamp;pressure;altitude;pressure_sealevel;temperature;humidity
6090;BME280;3073;42.660;23.316;2023-08-06T00:00:55;93425.88;;;26.26;100.00
6090;BME280;3073;42.660;23.316;2023-08-06T00:03:22;93425.53;;;25.90;100.00
6090;BME280;3073;42.660;23.316;2023-08-06T00:05:49;93465.78;;;25.86;100.00
6090;BME280;3073;42.660;23.316;2023-08-06T00:08:17;93467.47;;;26.01;100.00
6090;BME280;3073;42.660;23.316;2023-08-06T00:10:48;93471.47;;;26.25;100.00
6090;BME280;3073;42.660;23.316;2023-08-06T00:13:16;93466.88;;;25.81;100.00
6090;BME280;3073;42.660;23.316;2023-08-06T00:15:43;93450.41;;;26.14;100.00
6090;BME280;3073;42.660;23.316;2023-08-06T00:18:10;93432.84;;;26.11;100.00
6090;BME280;3073;42.660;23.316;2023-08-06T00:20:39;93434.31;;;26.12;100.00
6090;BME280;3073;42.660;23.316;2023-08-06T00:23:06;93451.69;;;26.27;100.00
6090;BME280;3073;42.660;23.316;2023-08-06T00:25:34;93455.59;;;26.44;100.00
6090;BME280;3073;42.660;23.316;2023-08-06T00:28:01;93455.56;;;26.40;100.00
6090;BME280;3073;42.660;23.316;2023-08-06T00:30:27;93453.25;;;26.32;100.00
6090;BME280;3073;42.660;23.316;2023-08-06T00:32:54;93443.94;;;26.38;100.00
6090;BME280;3073;42.660;23.316;2023-08-06T00:35:21;93436.25;;;26.15;100.00
6090;BME280;3073;42.660;23.316;2023-08-06T00:37:48;93434.19;;;26.31;100.00
6090;BME280;3073;42.660;23.316;2023-08-06T00:40:15;93425.44;;;26.17;100.00
6090;BME280;3073;42.660;23.316;2023-08-06T00:42:43;93436.53;;;26.47;100.00
6090;BME280;3073;42.660;23.316;2023-08-06T00:45:11;93425.59;;;25.97;100.00
6090;BME280;3073;42.660;23.316;2023-08-06T00:47:38;93423.78;;;25.68;100.00
6090;BME280;3073;42.660;23.316;2023-08-06T00:50:07;93427.66;;;25.81;100.00
6090;BME280;3073;42.660;23.316;2023-08-06T00:52:34;93424.97;;;25.74;100.00
6090;BME280;3073;42.660;23.316;2023-08-06T00:55:02;93420.38;;;25.97;100.00
6090;BME280;3073;42.660;23.316;2023-08-06T00:57:29;93426.66;;;26.26;100.00
6090;BME280;3073;42.660;23.316;2023-08-06T00:59:58;93413.56;;;26.26;100.00
6090;BME280;3073;42.660;23.316;2023-08-06T01:02:25;93416.56;;;26.76;100.00
6090;BME280;3073;42.660;23.316;2023-08-06T01:04:51;93399.03;;;26.32;100.00
6090;BME280;3073;42.660;23.316;2023-08-06T01:07:25;93380.16;;;26.12;100.00
6090;BME280;3073;42.660;23.316;2023-08-06T01:10:09;93370.16;;;25.81;100.00
6090;BME280;3073;42.660;23.316;2023-08-06T01:12:51;93378.88;;;26.33;100.00
6090;BME280;3073;42.660;23.316;2023-08-06T01:15:26;93391.47;;;25.83;100.00
6090;BME280;3073;42.660;23.316;2023-08-06T01:17:54;93387.22;;;25.68;100.00
6090;BME280;3073;42.660;23.316;2023-08-06T01:20:21;93384.41;;;26.24;100.00
6090;BME280;3073;42.660;23.316;2023-08-06T01:22:49;93379.28;;;26.35;100.00
6090;BME280;3073;42.660;23.316;2023-08-06T01:25:16;93372.63;;;26.44;100.00
6090;BME280;3073;42.660;23.316;2023-08-06T01:27:46;93372.19;;;26.39;100.00
6090;BME280;3073;42.660;23.316;2023-08-06T01:30:17;93375.66;;;26.09;100.00
6090;BME280;3073;42.660;23.316;2023-08-06T01:32:49;93370.03;;;25.67;100.00
6090;BME280;3073;42.660;23.316;2023-08-06T01:35:18;93367.63;;;26.25;100.00
6090;BME280;3073;42.660;23.316;2023-08-06T01:37:46;93363.72;;;26.12;100.00
6090;BME280;3073;42.660;23.316;2023-08-06T01:40:15;93351.56;;;26.27;100.00
6090;BME280;3073;42.660;23.316;2023-08-06T01:42:42;93361.09;;;26.56;100.00
6090;BME280;3073;42.660;23.316;2023-08-06T01:45:09;93363.63;;;26.42;100.00
6090;BME280;3073;42.660;23.316;2023-08-06T01:47:36;93363.00;;;26.62;100.00
6090;BME280;3073;42.660;23.316;2023-08-06T01:50:04;93367.06;;;26.53;100.00
6090;BME280;3073;42.660;23.316;2023-08-06T01:52:31;93364.44;;;26.53;100.00
6090;BME280;3073;42.660;23.316;2023-08-06T01:54:57;93357.34;;;25.06;100.00
6090;BME280;3073;42.660;23.316;2023-08-06T01:57:26;93352.66;;;25.85;100.00
6090;BME280;3073;42.660;23.316;2023-08-06T01:59:52;93361.75;;;25.62;100.00
6090;BME280;3073;42.660;23.316;2023-08-06T02:02:19;93351.75;;;26.07;100.00
6090;BME280;3073;42.660;23.316;2023-08-06T02:04:46;93348.31;;;25.63;100.00
6090;BME280;3073;42.660;23.316;2023-08-06T02:07:13;93345.38;;;25.65;100.00
6090;BME280;3073;42.660;23.316;2023-08-06T02:09:40;93345.66;;;25.96;100.00
6090;BME280;3073;42.660;23.316;2023-08-06T02:12:07;93348.50;;;26.18;100.00
6090;BME280;3073;42.660;23.316;2023-08-06T02:14:35;93349.72;;;25.90;100.00
6090;BME280;3073;42.660;23.316;2023-08-06T02:17:02;93348.81;;;26.16;100.00
6090;BME280;3073;42.660;23.316;2023-08-06T02:19:29;93359.72;;;25.81;100.00
6090;BME280;3073;42.660;23.316;2023-08-06T02:21:56;93379.88;;;25.18;100.00
6090;BME280;3073;42.660;23.316;2023-08-06T02:24:23;93399.50;;;24.33;100.00
6090;BME280;3073;42.660;23.316;2023-08-06T02:26:50;93379.06;;;24.35;100.00
6090;BME280;3073;42.660;23.316;2023-08-06T02:29:20;93361.19;;;25.49;100.00
6090;BME280;3073;42.660;23.316;2023-08-06T02:31:48;93363.41;;;25.14;100.00
6090;BME280;3073;42.660;23.316;2023-08-06T02:34:15;93353.06;;;25.21;100.00
6090;BME280;3073;42.660;23.316;2023-08-06T02:36:42;93350.47;;;25.54;100.00
6090;BME280;3073;42.660;23.316;2023-08-06T02:39:09;93377.47;;;25.05;100.00
6090;BME280;3073;42.660;23.316;2023-08-06T02:41:36;93404.75;;;25.68;100.00
6090;BME280;3073;42.660;23.316;2023-08-06T02:44:02;93411.19;;;25.77;100.00
6090;BME280;3073;42.660;23.316;2023-08-06T02:46:29;93401.81;;;25.73;100.00
6090;BME280;3073;42.660;23.316;2023-08-06T02:48:58;93381.63;;;26.10;100.00
6090;BME280;3073;42.660;23.316;2023-08-06T02:51:25;93365.91;;;26.06;100.00
6090;BME280;3073;42.660;23.316;2023-08-06T02:53:51;93341.66;;;26.09;100.00
6090;BME280;3073;42.660;23.316;2023-08-06T02:56:18;93350.03;;;26.26;100.00
6090;BME280;3073;42.660;23.316;2023-08-06T02:58:45;93336.44;;;26.09;100.00
6090;BME280;3073;42.660;23.316;2023-08-06T03:01:12;93324.19;;;25.77;100.00
6090;BME280;3073;42.660;23.316;2023-08-06T03:03:39;93354.41;;;25.74;100.00
6090;BME280;3073;42.660;23.316;2023-08-06T03:06:07;93334.44;;;25.96;100.00
6090;BME280;3073;42.660;23.316;2023-08-06T03:08:34;93308.25;;;25.85;100.00
6090;BME280;3073;42.660;23.316;2023-08-06T03:11:01;93314.53;;;26.21;100.00
6090;BME280;3073;42.660;23.316;2023-08-06T03:13:28;93343.53;;;24.79;100.00
6090;BME280;3073;42.660;23.316;2023-08-06T03:15:56;93348.59;;;24.42;100.00
6090;BME280;3073;42.660;23.316;2023-08-06T03:18:23;93328.84;;;24.94;100.00
6090;BME280;3073;42.660;23.316;2023-08-06T03:20:51;93310.16;;;25.51;100.00
6090;BME280;3073;42.660;23.316;2023-08-06T03:23:19;93296.78;;;26.00;100.00
6090;BME280;3073;42.660;23.316;2023-08-06T03:25:46;93306.59;;;25.70;100.00
6090;BME280;3073;42.660;23.316;2023-08-06T03:28:13;93340.03;;;25.24;100.00
6090;BME280;3073;42.660;23.316;2023-08-06T03:30:40;93357.41;;;25.43;100.00
6090;BME280;3073;42.660;23.316;2023-08-06T03:33:07;93367.81;;;25.39;100.00
6090;BME280;3073;42.660;23.316;2023-08-06T03:35:33;93366.88;;;25.51;100.00
6090;BME280;3073;42.660;23.316;2023-08-06T03:38:00;93357.63;;;25.97;100.00
6090;BME280;3073;42.660;23.316;2023-08-06T03:40:28;93347.66;;;26.10;100.00
6090;BME280;3073;42.660;23.316;2023-08-06T03:42:55;93362.00;;;26.27;100.00
6090;BME280;3073;42.660;23.316;2023-08-06T03:45:22;93365.19;;;26.50;100.00
6090;BME280;3073;42.660;23.316;2023-08-06T03:47:48;93355.47;;;26.50;100.00
6090;BME280;3073;42.660;23.316;2023-08-06T03:50:15;93351.31;;;26.46;100.00
6090;BME280;3073;42.660;23.316;2023-08-06T03:52:42;93358.19;;;26.65;100.00
6090;BME280;3073;42.660;23.316;2023-08-06T03:55:09;93372.34;;;26.60;100.00
6090;BME280;3073;42.660;23.316;2023-08-06T03:57:37;93375.47;;;26.80;100.00
6090;BME280;3073;42.660;23.316;2023-08-06T04:00:05;93380.56;;;26.55;100.00
6090;BME280;3073;42.660;23.316;2023-08-06T04:02:32;93385.31;;;26.46;100.00
6090;BME280;3073;42.660;23.316;2023-08-06T04:05:00;93395.78;;;26.05;100.00
6090;BME280;3073;42.660;23.316;2023-08-06T04:07:27;93392.75;;;26.00;100.00
6090;BME280;3073;42.660;23.316;2023-08-06T04:09:56;93392.31;;;26.31;100.00
6090;BME280;3073;42.660;23.316;2023-08-06T04:12:23;93392.47;;;26.52;100.00
6090;BME280;3073;42.660;23.316;2023-08-06T04:14:53;93393.66;;;26.58;100.00
6090;BME280;3073;42.660;23.316;2023-08-06T04:17:21;93381.13;;;26.34;100.00
6090;BME280;3073;42.660;23.316;2023-08-06T04:19:49;93388.78;;;26.57;100.00
6090;BME280;3073;42.660;23.316;2023-08-06T04:22:16;93384.38;;;26.68;100.00
6090;BME280;3073;42.660;23.316;2023-08-06T04:24:43;93379.72;;;26.44;100.00
6090;BME280;3073;42.660;23.316;2023-08-06T04:27:12;93377.88;;;26.07;100.00
6090;BME280;3073;42.660;23.316;2023-08-06T04:29:39;93378.31;;;26.13;100.00
6090;BME280;3073;42.660;23.316;2023-08-06T04:32:08;93378.06;;;25.51;100.00
6090;BME280;3073;42.660;23.316;2023-08-06T04:34:36;93368.22;;;26.11;100.00
6090;BME280;3073;42.660;23.316;2023-08-06T04:37:04;93355.13;;;26.59;100.00
6090;BME280;3073;42.660;23.316;2023-08-06T04:39:31;93357.44;;;26.64;100.00
6090;BME280;3073;42.660;23.316;2023-08-06T04:41:58;93338.75;;;26.69;100.00
6090;BME280;3073;42.660;23.316;2023-08-06T04:44:25;93333.47;;;26.62;100.00
6090;BME280;3073;42.660;23.316;2023-08-06T04:46:52;93329.84;;;26.23;100.00
6090;BME280;3073;42.660;23.316;2023-08-06T04:49:21;93322.63;;;26.12;100.00
6090;BME280;3073;42.660;23.316;2023-08-06T04:51:48;93311.88;;;26.76;100.00
6090;BME280;3073;42.660;23.316;2023-08-06T04:54:15;93312.75;;;26.94;100.00
6090;BME280;3073;42.660;23.316;2023-08-06T04:56:42;93302.78;;;27.24;100.00
6090;BME280;3073;42.660;23.316;2023-08-06T04:59:08;93297.06;;;27.01;100.00
6090;BME280;3073;42.660;23.316;2023-08-06T05:01:35;93292.31;;;26.52;100.00
6090;BME280;3073;42.660;23.316;2023-08-06T05:04:02;93295.63;;;27.10;100.00
6090;BME280;3073;42.660;23.316;2023-08-06T05:06:30;93295.78;;;26.74;100.00
6090;BME280;3073;42.660;23.316;2023-08-06T05:08:57;93312.84;;;27.11;100.00
6090;BME280;3073;42.660;23.316;2023-08-06T05:11:24;93305.16;;;27.65;100.00
6090;BME280;3073;42.660;23.316;2023-08-06T05:13:51;93301.78;;;27.68;100.00
6090;BME280;3073;42.660;23.316;2023-08-06T05:16:18;93308.41;;;27.37;100.00
6090;BME280;3073;42.660;23.316;2023-08-06T05:18:44;93312.84;;;27.11;100.00
6090;BME280;3073;42.660;23.316;2023-08-06T05:21:11;93304.22;;;27.11;100.00
6090;BME280;3073;42.660;23.316;2023-08-06T05:23:39;93313.34;;;27.49;100.00
6090;BME280;3073;42.660;23.316;2023-08-06T05:26:06;93302.97;;;26.84;100.00
6090;BME280;3073;42.660;23.316;2023-08-06T05:28:33;93299.91;;;27.68;100.00
6090;BME280;3073;42.660;23.316;2023-08-06T05:31:03;93302.59;;;28.10;100.00
6090;BME280;3073;42.660;23.316;2023-08-06T05:33:30;93299.19;;;27.99;100.00
6090;BME280;3073;42.660;23.316;2023-08-06T05:35:56;93299.91;;;27.61;100.00
6090;BME280;3073;42.660;23.316;2023-08-06T05:38:23;93292.06;;;28.03;100.00
6090;BME280;3073;42.660;23.316;2023-08-06T05:40:51;93296.13;;;27.48;100.00
6090;BME280;3073;42.660;23.316;2023-08-06T05:43:18;93287.56;;;27.76;100.00
6090;BME280;3073;42.660;23.316;2023-08-06T05:45:45;93291.31;;;28.03;100.00
6090;BME280;3073;42.660;23.316;2023-08-06T05:48:12;93290.59;;;27.88;100.00
6090;BME280;3073;42.660;23.316;2023-08-06T05:50:39;93299.56;;;28.51;100.00
6090;BME280;3073;42.660;23.316;2023-08-06T05:53:05;93294.25;;;28.90;100.00
6090;BME280;3073;42.660;23.316;2023-08-06T05:55:32;93308.41;;;29.21;100.00
6090;BME280;3073;42.660;23.316;2023-08-06T05:58:01;93312.53;;;29.98;100.00
6090;BME280;3073;42.660;23.316;2023-08-06T06:00:27;93320.69;;;29.48;100.00
6090;BME280;3073;42.660;23.316;2023-08-06T06:02:54;93318.78;;;29.52;98.43
6090;BME280;3073;42.660;23.316;2023-08-06T06:05:21;93323.59;;;29.68;95.12
6090;BME280;3073;42.660;23.316;2023-08-06T06:07:48;93323.50;;;30.37;89.83
6090;BME280;3073;42.660;23.316;2023-08-06T06:10:14;93324.16;;;29.28;88.88
6090;BME280;3073;42.660;23.316;2023-08-06T06:12:41;93328.63;;;29.38;89.12
6090;BME280;3073;42.660;23.316;2023-08-06T06:15:11;93332.41;;;29.19;90.13
6090;BME280;3073;42.660;23.316;2023-08-06T06:17:38;93334.78;;;30.38;86.02
6090;BME280;3073;42.660;23.316;2023-08-06T06:20:06;93343.00;;;30.47;82.96
6090;BME280;3073;42.660;23.316;2023-08-06T06:22:32;93347.56;;;30.43;84.70
6090;BME280;3073;42.660;23.316;2023-08-06T06:24:59;93359.75;;;31.11;78.18
6090;BME280;3073;42.660;23.316;2023-08-06T06:27:26;93352.50;;;31.19;76.21
6090;BME280;3073;42.660;23.316;2023-08-06T06:29:53;93360.28;;;30.51;76.53
6090;BME280;3073;42.660;23.316;2023-08-06T06:32:21;93362.34;;;30.74;75.84
6090;BME280;3073;42.660;23.316;2023-08-06T06:34:48;93363.59;;;30.07;80.82
6090;BME280;3073;42.660;23.316;2023-08-06T06:37:15;93367.63;;;29.46;83.79
6090;BME280;3073;42.660;23.316;2023-08-06T06:39:42;93377.94;;;29.96;80.24
6090;BME280;3073;42.660;23.316;2023-08-06T06:42:09;93381.09;;;30.32;78.77
6090;BME280;3073;42.660;23.316;2023-08-06T06:44:36;93385.47;;;30.93;81.55
6090;BME280;3073;42.660;23.316;2023-08-06T06:47:04;93390.34;;;31.02;79.47
6090;BME280;3073;42.660;23.316;2023-08-06T06:49:32;93390.84;;;30.35;80.08
6090;BME280;3073;42.660;23.316;2023-08-06T06:51:59;93395.06;;;29.49;83.27
6090;BME280;3073;42.660;23.316;2023-08-06T06:54:26;93388.91;;;29.80;81.20
6090;BME280;3073;42.660;23.316;2023-08-06T06:56:52;93402.00;;;29.94;84.21
6090;BME280;3073;42.660;23.316;2023-08-06T06:59:19;93412.78;;;29.02;84.84
6090;BME280;3073;42.660;23.316;2023-08-06T07:01:46;93416.72;;;29.88;83.97
6090;BME280;3073;42.660;23.316;2023-08-06T07:04:13;93417.69;;;30.16;77.17
6090;BME280;3073;42.660;23.316;2023-08-06T07:06:41;93424.94;;;29.90;76.17
6090;BME280;3073;42.660;23.316;2023-08-06T07:09:08;93423.69;;;28.62;80.68
6090;BME280;3073;42.660;23.316;2023-08-06T07:11:35;93422.75;;;29.85;74.61
6090;BME280;3073;42.660;23.316;2023-08-06T07:14:02;93433.72;;;29.55;76.27
6090;BME280;3073;42.660;23.316;2023-08-06T07:16:29;93435.66;;;29.12;73.74
6090;BME280;3073;42.660;23.316;2023-08-06T07:18:55;93435.66;;;30.24;71.45
6090;BME280;3073;42.660;23.316;2023-08-06T07:21:22;93443.53;;;30.31;68.46
6090;BME280;3073;42.660;23.316;2023-08-06T07:23:50;93430.78;;;29.18;73.63
6090;BME280;3073;42.660;23.316;2023-08-06T07:26:20;93430.19;;;29.97;68.36
6090;BME280;3073;42.660;23.316;2023-08-06T07:28:46;93431.78;;;29.67;64.89
6090;BME280;3073;42.660;23.316;2023-08-06T07:31:13;93438.13;;;31.79;60.96
6090;BME280;3073;42.660;23.316;2023-08-06T07:33:40;93434.19;;;30.20;65.34
6090;BME280;3073;42.660;23.316;2023-08-06T07:36:11;93426.84;;;29.86;69.68
6090;BME280;3073;42.660;23.316;2023-08-06T07:38:38;93431.22;;;30.14;66.49
6090;BME280;3073;42.660;23.316;2023-08-06T07:41:07;93432.81;;;31.07;63.11
6090;BME280;3073;42.660;23.316;2023-08-06T07:43:34;93435.81;;;31.81;60.80
6090;BME280;3073;42.660;23.316;2023-08-06T07:46:01;93428.63;;;31.51;60.21
6090;BME280;3073;42.660;23.316;2023-08-06T07:48:28;93425.38;;;32.31;59.70
6090;BME280;3073;42.660;23.316;2023-08-06T07:50:55;93420.16;;;30.92;59.54
6090;BME280;3073;42.660;23.316;2023-08-06T07:53:22;93423.69;;;30.71;60.89
6090;BME280;3073;42.660;23.316;2023-08-06T07:55:52;93428.78;;;30.96;60.25
6090;BME280;3073;42.660;23.316;2023-08-06T07:58:21;93422.25;;;31.11;59.34
6090;BME280;3073;42.660;23.316;2023-08-06T08:00:48;93432.41;;;32.68;57.18
6090;BME280;3073;42.660;23.316;2023-08-06T08:03:15;93425.84;;;31.95;55.12
6090;BME280;3073;42.660;23.316;2023-08-06T08:05:44;93422.47;;;32.75;53.85
6090;BME280;3073;42.660;23.316;2023-08-06T08:08:11;93415.81;;;31.49;56.58
6090;BME280;3073;42.660;23.316;2023-08-06T08:10:38;93411.50;;;30.43;57.85
6090;BME280;3073;42.660;23.316;2023-08-06T08:13:05;93419.44;;;29.56;60.27
6090;BME280;3073;42.660;23.316;2023-08-06T08:15:34;93431.94;;;30.22;58.54
6090;BME280;3073;42.660;23.316;2023-08-06T08:18:01;93432.47;;;31.05;56.49
6090;BME280;3073;42.660;23.316;2023-08-06T08:20:27;93422.28;;;31.07;55.82
6090;BME280;3073;42.660;23.316;2023-08-06T08:22:58;93418.59;;;30.98;55.81
6090;BME280;3073;42.660;23.316;2023-08-06T08:25:25;93422.91;;;31.86;54.33
6090;BME280;3073;42.660;23.316;2023-08-06T08:27:52;93425.25;;;33.54;52.38
6090;BME280;3073;42.660;23.316;2023-08-06T08:30:19;93427.94;;;33.11;51.10
6090;BME280;3073;42.660;23.316;2023-08-06T08:32:48;93432.25;;;32.51;51.31
6090;BME280;3073;42.660;23.316;2023-08-06T08:35:15;93428.03;;;31.33;53.85
6090;BME280;3073;42.660;23.316;2023-08-06T08:37:42;93422.59;;;31.50;53.96
6090;BME280;3073;42.660;23.316;2023-08-06T08:40:09;93421.91;;;31.77;54.31
6090;BME280;3073;42.660;23.316;2023-08-06T08:42:37;93429.81;;;33.10;52.74
6090;BME280;3073;42.660;23.316;2023-08-06T08:45:05;93430.41;;;34.00;49.10
6090;BME280;3073;42.660;23.316;2023-08-06T08:47:34;93425.84;;;31.95;51.57
6090;BME280;3073;42.660;23.316;2023-08-06T08:50:05;93422.69;;;31.40;53.11
6090;BME280;3073;42.660;23.316;2023-08-06T08:52:33;93409.06;;;31.11;52.66
6090;BME280;3073;42.660;23.316;2023-08-06T08:55:01;93414.06;;;32.80;51.63
6090;BME280;3073;42.660;23.316;2023-08-06T08:57:28;93408.56;;;32.94;51.79
6090;BME280;3073;42.660;23.316;2023-08-06T08:59:55;93402.38;;;32.01;54.57
6090;BME280;3073;42.660;23.316;2023-08-06T09:02:22;93405.41;;;31.01;55.94
6090;BME280;3073;42.660;23.316;2023-08-06T09:04:52;93397.19;;;31.94;54.33
6090;BME280;3073;42.660;23.316;2023-08-06T09:07:22;93400.22;;;32.96;51.32
6090;BME280;3073;42.660;23.316;2023-08-06T09:09:52;93404.78;;;33.38;50.61
6090;BME280;3073;42.660;23.316;2023-08-06T09:12:19;93398.34;;;34.14;49.17
6090;BME280;3073;42.660;23.316;2023-08-06T09:14:47;93395.09;;;35.04;46.83
6090;BME280;3073;42.660;23.316;2023-08-06T09:17:13;93395.16;;;35.33;45.74
6090;BME280;3073;42.660;23.316;2023-08-06T09:19:44;93389.97;;;35.42;44.54
6090;BME280;3073;42.660;23.316;2023-08-06T09:22:13;93383.25;;;31.93;47.71
6090;BME280;3073;42.660;23.316;2023-08-06T09:24:43;93376.22;;;32.63;47.97
6090;BME280;3073;42.660;23.316;2023-08-06T09:27:13;93378.19;;;32.56;48.42
6090;BME280;3073;42.660;23.316;2023-08-06T09:29:41;93380.97;;;32.49;47.63
6090;BME280;3073;42.660;23.316;2023-08-06T09:32:09;93381.34;;;32.47;46.08
6090;BME280;3073;42.660;23.316;2023-08-06T09:34:38;93375.09;;;32.38;47.15
6090;BME280;3073;42.660;23.316;2023-08-06T09:37:06;93369.81;;;33.47;46.81
6090;BME280;3073;42.660;23.316;2023-08-06T09:39:35;93364.75;;;32.93;45.89
6090;BME280;3073;42.660;23.316;2023-08-06T09:42:03;93365.50;;;34.44;44.10
6090;BME280;3073;42.660;23.316;2023-08-06T09:44:31;93368.69;;;34.20;42.15
6090;BME280;3073;42.660;23.316;2023-08-06T09:47:01;93366.06;;;34.20;42.78
6090;BME280;3073;42.660;23.316;2023-08-06T09:49:40;93366.47;;;33.03;44.41
6090;BME280;3073;42.660;23.316;2023-08-06T09:52:12;93376.38;;;33.62;44.12
6090;BME280;3073;42.660;23.316;2023-08-06T09:54:39;93373.00;;;31.99;46.08
6090;BME280;3073;42.660;23.316;2023-08-06T09:57:08;93374.41;;;32.07;46.47
6090;BME280;3073;42.660;23.316;2023-08-06T09:59:37;93378.00;;;32.70;47.06
6090;BME280;3073;42.660;23.316;2023-08-06T10:02:10;93376.81;;;32.48;46.78
6090;BME280;3073;42.660;23.316;2023-08-06T10:04:39;93372.63;;;32.50;46.48
6090;BME280;3073;42.660;23.316;2023-08-06T10:07:06;93378.69;;;32.74;45.32
6090;BME280;3073;42.660;23.316;2023-08-06T10:09:33;93379.69;;;31.77;47.14
6090;BME280;3073;42.660;23.316;2023-08-06T10:12:00;93385.16;;;32.20;47.86
6090;BME280;3073;42.660;23.316;2023-08-06T10:14:32;93384.97;;;32.07;48.22
6090;BME280;3073;42.660;23.316;2023-08-06T10:17:00;93386.75;;;32.40;46.76
6090;BME280;3073;42.660;23.316;2023-08-06T10:19:28;93383.66;;;31.28;48.02
6090;BME280;3073;42.660;23.316;2023-08-06T10:22:08;93385.22;;;32.66;44.96
6090;BME280;3073;42.660;23.316;2023-08-06T10:24:47;93377.94;;;33.95;44.10
6090;BME280;3073;42.660;23.316;2023-08-06T10:27:14;93385.63;;;34.74;42.81
6090;BME280;3073;42.660;23.316;2023-08-06T10:29:47;93385.00;;;33.43;42.80
6090;BME280;3073;42.660;23.316;2023-08-06T10:32:14;93386.03;;;32.63;43.03
6090;BME280;3073;42.660;23.316;2023-08-06T10:34:53;93395.97;;;34.00;42.26
6090;BME280;3073;42.660;23.316;2023-08-06T10:37:21;93395.75;;;32.70;44.29
6090;BME280;3073;42.660;23.316;2023-08-06T10:39:49;93404.66;;;33.02;43.63
6090;BME280;3073;42.660;23.316;2023-08-06T10:42:21;93406.03;;;32.87;43.77
6090;BME280;3073;42.660;23.316;2023-08-06T10:45:17;93407.03;;;32.47;44.98
6090;BME280;3073;42.660;23.316;2023-08-06T10:47:45;93406.03;;;30.68;49.39
6090;BME280;3073;42.660;23.316;2023-08-06T10:50:14;93409.00;;;31.18;50.18
6090;BME280;3073;42.660;23.316;2023-08-06T10:52:42;93418.25;;;30.48;51.50
6090;BME280;3073;42.660;23.316;2023-08-06T10:55:09;93418.53;;;31.05;50.93
6090;BME280;3073;42.660;23.316;2023-08-06T10:57:36;93415.91;;;30.57;52.59
6090;BME280;3073;42.660;23.316;2023-08-06T11:00:04;93423.28;;;31.21;52.24
6090;BME280;3073;42.660;23.316;2023-08-06T11:02:35;93427.53;;;31.82;50.43
6090;BME280;3073;42.660;23.316;2023-08-06T11:05:06;93426.16;;;30.92;50.86
6090;BME280;3073;42.660;23.316;2023-08-06T11:07:33;93427.78;;;31.20;51.33
6090;BME280;3073;42.660;23.316;2023-08-06T11:10:02;93428.91;;;32.21;49.56
6090;BME280;3073;42.660;23.316;2023-08-06T11:12:30;93429.56;;;31.98;50.19
6090;BME280;3073;42.660;23.316;2023-08-06T11:14:57;93427.72;;;31.27;51.13
6090;BME280;3073;42.660;23.316;2023-08-06T11:17:24;93425.44;;;31.29;51.90
6090;BME280;3073;42.660;23.316;2023-08-06T11:19:52;93435.06;;;31.09;52.16
6090;BME280;3073;42.660;23.316;2023-08-06T11:22:20;93457.78;;;30.34;54.70
6090;BME280;3073;42.660;23.316;2023-08-06T11:24:47;93474.66;;;28.33;62.51
6090;BME280;3073;42.660;23.316;2023-08-06T11:27:15;93466.66;;;27.90;94.12
6090;BME280;3073;42.660;23.316;2023-08-06T11:29:43;93454.53;;;27.54;100.00
6090;BME280;3073;42.660;23.316;2023-08-06T11:32:10;93454.56;;;27.61;100.00
6090;BME280;3073;42.660;23.316;2023-08-06T11:34:38;93452.41;;;27.84;100.00
6090;BME280;3073;42.660;23.316;2023-08-06T11:37:07;93456.44;;;27.06;98.52
6090;BME280;3073;42.660;23.316;2023-08-06T11:39:34;93453.53;;;27.15;98.19
6090;BME280;3073;42.660;23.316;2023-08-06T11:42:03;93450.50;;;27.09;99.48
6090;BME280;3073;42.660;23.316;2023-08-06T11:44:31;93446.28;;;27.55;100.00
6090;BME280;3073;42.660;23.316;2023-08-06T11:46:59;93439.78;;;28.36;100.00
6090;BME280;3073;42.660;23.316;2023-08-06T11:49:40;93437.50;;;28.09;96.47
6090;BME280;3073;42.660;23.316;2023-08-06T11:52:21;93437.19;;;28.53;89.26
6090;BME280;3073;42.660;23.316;2023-08-06T11:55:00;93442.03;;;30.27;88.99
6090;BME280;3073;42.660;23.316;2023-08-06T11:57:29;93437.03;;;32.06;79.24
6090;BME280;3073;42.660;23.316;2023-08-06T12:00:01;93438.78;;;32.93;75.38
6090;BME280;3073;42.660;23.316;2023-08-06T12:02:31;93433.16;;;34.33;63.68
6090;BME280;3073;42.660;23.316;2023-08-06T12:05:01;93426.19;;;34.23;56.13
6090;BME280;3073;42.660;23.316;2023-08-06T12:07:31;93434.41;;;35.09;54.38
6090;BME280;3073;42.660;23.316;2023-08-06T12:09:58;93435.22;;;34.05;51.21
6090;BME280;3073;42.660;23.316;2023-08-06T12:12:25;93431.84;;;33.85;54.45
6090;BME280;3073;42.660;23.316;2023-08-06T12:14:54;93420.38;;;34.60;51.61
6090;BME280;3073;42.660;23.316;2023-08-06T12:17:21;93422.22;;;32.89;54.21
6090;BME280;3073;42.660;23.316;2023-08-06T12:19:48;93418.00;;;32.72;53.84
6090;BME280;3073;42.660;23.316;2023-08-06T12:22:14;93414.47;;;33.02;54.80
6090;BME280;3073;42.660;23.316;2023-08-06T12:24:44;93417.13;;;33.64;53.85
6090;BME280;3073;42.660;23.316;2023-08-06T12:27:11;93417.84;;;33.26;53.33
6090;BME280;3073;42.660;23.316;2023-08-06T12:29:41;93427.97;;;33.50;52.45
6090;BME280;3073;42.660;23.316;2023-08-06T12:32:09;93421.06;;;32.90;52.85
6090;BME280;3073;42.660;23.316;2023-08-06T12:34:37;93421.44;;;32.42;54.56
6090;BME280;3073;42.660;23.316;2023-08-06T12:37:04;93414.22;;;31.59;53.09
6090;BME280;3073;42.660;23.316;2023-08-06T12:39:31;93425.88;;;31.61;52.89
6090;BME280;3073;42.660;23.316;2023-08-06T12:42:00;93427.88;;;31.84;53.28
6090;BME280;3073;42.660;23.316;2023-08-06T12:44:27;93416.50;;;32.18;53.69
6090;BME280;3073;42.660;23.316;2023-08-06T12:46:54;93412.78;;;31.85;53.81
6090;BME280;3073;42.660;23.316;2023-08-06T12:49:21;93410.38;;;31.94;51.86
6090;BME280;3073;42.660;23.316;2023-08-06T12:51:48;93408.72;;;31.77;52.08
6090;BME280;3073;42.660;23.316;2023-08-06T12:54:16;93404.53;;;31.49;53.59
6090;BME280;3073;42.660;23.316;2023-08-06T12:56:43;93410.31;;;32.01;52.38
6090;BME280;3073;42.660;23.316;2023-08-06T12:59:11;93414.56;;;31.91;52.00
6090;BME280;3073;42.660;23.316;2023-08-06T13:01:38;93401.00;;;31.89;52.35
6090;BME280;3073;42.660;23.316;2023-08-06T13:04:05;93404.81;;;32.19;52.51
6090;BME280;3073;42.660;23.316;2023-08-06T13:06:32;93416.22;;;32.66;52.02
6090;BME280;3073;42.660;23.316;2023-08-06T13:09:02;93409.31;;;32.95;50.38